sensor_id;sensor_type;location;lat;lon;timestamp;P1;durP1;ratioP1;P2;durP2;ratioP2
64957;SDS011;51486;50.232;19.208;2022-09-09T00:00:13;2.77;;;2.17;;
64957;SDS011;51486;50.232;19.208;2022-09-09T00:02:44;4.33;;;2.70;;
64957;SDS011;51486;50.232;19.208;2022-09-09T00:08:18;4.43;;;2.43;;
64957;SDS011;51486;50.232;19.208;2022-09-09T00:10:47;4.33;;;2.57;;
64957;SDS011;51486;50.232;19.208;2022-09-09T00:13:22;3.43;;;2.13;;
64957;SDS011;51486;50.232;19.208;2022-09-09T00:21:37;3.93;;;2.50;;
64957;SDS011;51486;50.232;19.208;2022-09-09T00:26:52;4.50;;;2.57;;
64957;SDS011;51486;50.232;19.208;2022-09-09T00:29:28;4.20;;;2.90;;
64957;SDS011;51486;50.232;19.208;2022-09-09T00:32:00;5.60;;;2.90;;
64957;SDS011;51486;50.232;19.208;2022-09-09T00:34:34;4.93;;;3.13;;
64957;SDS011;51486;50.232;19.208;2022-09-09T00:37:01;6.30;;;3.53;;
64957;SDS011;51486;50.232;19.208;2022-09-09T00:39:31;5.43;;;2.70;;
64957;SDS011;51486;50.232;19.208;2022-09-09T00:47:45;5.07;;;3.27;;
64957;SDS011;51486;50.232;19.208;2022-09-09T00:56:08;6.87;;;3.80;;
64957;SDS011;51486;50.232;19.208;2022-09-09T00:58:42;8.90;;;4.60;;
64957;SDS011;51486;50.232;19.208;2022-09-09T01:01:15;10.33;;;4.77;;
64957;SDS011;51486;50.232;19.208;2022-09-09T01:03:49;10.47;;;5.20;;
64957;SDS011;51486;50.232;19.208;2022-09-09T01:11:32;11.93;;;4.80;;
64957;SDS011;51486;50.232;19.208;2022-09-09T01:17:11;11.53;;;5.77;;
64957;SDS011;51486;50.232;19.208;2022-09-09T01:19:51;8.00;;;5.10;;
64957;SDS011;51486;50.232;19.208;2022-09-09T01:25:22;7.40;;;4.70;;
64957;SDS011;51486;50.232;19.208;2022-09-09T01:27:54;7.70;;;4.63;;
64957;SDS011;51486;50.232;19.208;2022-09-09T01:30:22;8.50;;;4.60;;
64957;SDS011;51486;50.232;19.208;2022-09-09T01:32:49;12.90;;;5.10;;
64957;SDS011;51486;50.232;19.208;2022-09-09T01:38:09;8.90;;;5.37;;
64957;SDS011;51486;50.232;19.208;2022-09-09T01:40:34;8.27;;;4.83;;
64957;SDS011;51486;50.232;19.208;2022-09-09T01:43:00;9.97;;;5.83;;
64957;SDS011;51486;50.232;19.208;2022-09-09T01:45:26;8.07;;;4.70;;
64957;SDS011;51486;50.232;19.208;2022-09-09T01:47:54;6.17;;;4.00;;
64957;SDS011;51486;50.232;19.208;2022-09-09T01:50:21;14.30;;;5.70;;
64957;SDS011;51486;50.232;19.208;2022-09-09T01:52:47;9.93;;;4.73;;
64957;SDS011;51486;50.232;19.208;2022-09-09T01:55:17;11.53;;;4.83;;
64957;SDS011;51486;50.232;19.208;2022-09-09T02:00:43;19.37;;;5.70;;
64957;SDS011;51486;50.232;19.208;2022-09-09T02:03:36;10.43;;;5.77;;
64957;SDS011;51486;50.232;19.208;2022-09-09T02:08:46;8.90;;;5.13;;
64957;SDS011;51486;50.232;19.208;2022-09-09T02:11:18;8.70;;;5.10;;
64957;SDS011;51486;50.232;19.208;2022-09-09T02:13:45;7.73;;;4.70;;
64957;SDS011;51486;50.232;19.208;2022-09-09T02:21:50;10.07;;;5.50;;
64957;SDS011;51486;50.232;19.208;2022-09-09T02:24:18;8.60;;;5.13;;
64957;SDS011;51486;50.232;19.208;2022-09-09T02:26:44;8.83;;;5.23;;
64957;SDS011;51486;50.232;19.208;2022-09-09T02:29:17;10.00;;;5.67;;
64957;SDS011;51486;50.232;19.208;2022-09-09T02:31:46;10.70;;;5.70;;
64957;SDS011;51486;50.232;19.208;2022-09-09T02:34:13;10.60;;;6.30;;
64957;SDS011;51486;50.232;19.208;2022-09-09T02:36:41;9.67;;;6.50;;
64957;SDS011;51486;50.232;19.208;2022-09-09T02:39:08;9.07;;;5.60;;
64957;SDS011;51486;50.232;19.208;2022-09-09T02:41:36;10.03;;;6.87;;
64957;SDS011;51486;50.232;19.208;2022-09-09T02:44:11;8.63;;;5.10;;
64957;SDS011;51486;50.232;19.208;2022-09-09T02:52:37;8.20;;;5.67;;
64957;SDS011;51486;50.232;19.208;2022-09-09T02:55:11;12.60;;;6.57;;
64957;SDS011;51486;50.232;19.208;2022-09-09T02:57:41;8.90;;;5.47;;
64957;SDS011;51486;50.232;19.208;2022-09-09T03:00:08;12.43;;;5.93;;
64957;SDS011;51486;50.232;19.208;2022-09-09T03:02:36;13.17;;;6.67;;
64957;SDS011;51486;50.232;19.208;2022-09-09T03:05:02;13.30;;;6.33;;
64957;SDS011;51486;50.232;19.208;2022-09-09T03:07:28;9.43;;;5.90;;
64957;SDS011;51486;50.232;19.208;2022-09-09T03:09:53;14.10;;;6.83;;
64957;SDS011;51486;50.232;19.208;2022-09-09T03:12:19;11.00;;;7.00;;
64957;SDS011;51486;50.232;19.208;2022-09-09T03:14:45;13.73;;;7.00;;
64957;SDS011;51486;50.232;19.208;2022-09-09T03:17:12;12.67;;;6.77;;
64957;SDS011;51486;50.232;19.208;2022-09-09T03:19:37;11.27;;;7.00;;
64957;SDS011;51486;50.232;19.208;2022-09-09T03:22:03;15.30;;;6.80;;
64957;SDS011;51486;50.232;19.208;2022-09-09T03:24:29;16.00;;;8.20;;
64957;SDS011;51486;50.232;19.208;2022-09-09T03:26:54;12.60;;;6.90;;
64957;SDS011;51486;50.232;19.208;2022-09-09T03:29:20;14.57;;;7.43;;
64957;SDS011;51486;50.232;19.208;2022-09-09T03:31:46;60.63;;;10.57;;
64957;SDS011;51486;50.232;19.208;2022-09-09T03:34:12;13.53;;;7.10;;
64957;SDS011;51486;50.232;19.208;2022-09-09T03:36:38;12.40;;;6.27;;
64957;SDS011;51486;50.232;19.208;2022-09-09T03:39:04;9.80;;;7.03;;
64957;SDS011;51486;50.232;19.208;2022-09-09T03:41:30;13.07;;;6.30;;
64957;SDS011;51486;50.232;19.208;2022-09-09T03:43:55;13.00;;;6.03;;
64957;SDS011;51486;50.232;19.208;2022-09-09T03:46:22;22.30;;;6.80;;
64957;SDS011;51486;50.232;19.208;2022-09-09T03:48:48;12.97;;;7.20;;
64957;SDS011;51486;50.232;19.208;2022-09-09T03:51:14;12.47;;;6.27;;
64957;SDS011;51486;50.232;19.208;2022-09-09T03:53:40;9.70;;;6.33;;
64957;SDS011;51486;50.232;19.208;2022-09-09T03:56:06;10.63;;;6.63;;
64957;SDS011;51486;50.232;19.208;2022-09-09T03:58:33;11.20;;;6.33;;
64957;SDS011;51486;50.232;19.208;2022-09-09T04:01:00;17.53;;;6.93;;
64957;SDS011;51486;50.232;19.208;2022-09-09T04:03:28;10.17;;;5.70;;
64957;SDS011;51486;50.232;19.208;2022-09-09T04:05:54;13.40;;;6.10;;
64957;SDS011;51486;50.232;19.208;2022-09-09T04:08:21;13.60;;;7.90;;
64957;SDS011;51486;50.232;19.208;2022-09-09T04:10:50;15.27;;;6.80;;
64957;SDS011;51486;50.232;19.208;2022-09-09T04:13:16;11.83;;;6.53;;
64957;SDS011;51486;50.232;19.208;2022-09-09T04:15:43;14.23;;;6.27;;
64957;SDS011;51486;50.232;19.208;2022-09-09T04:18:10;13.20;;;6.63;;
64957;SDS011;51486;50.232;19.208;2022-09-09T04:20:36;11.37;;;6.53;;
64957;SDS011;51486;50.232;19.208;2022-09-09T04:23:02;13.33;;;7.20;;
64957;SDS011;51486;50.232;19.208;2022-09-09T04:25:28;9.30;;;6.20;;
64957;SDS011;51486;50.232;19.208;2022-09-09T04:27:54;11.77;;;6.03;;
64957;SDS011;51486;50.232;19.208;2022-09-09T04:30:21;16.97;;;7.93;;
64957;SDS011;51486;50.232;19.208;2022-09-09T04:32:47;26.47;;;9.43;;
64957;SDS011;51486;50.232;19.208;2022-09-09T04:35:12;15.20;;;8.97;;
64957;SDS011;51486;50.232;19.208;2022-09-09T04:37:38;15.40;;;7.87;;
64957;SDS011;51486;50.232;19.208;2022-09-09T04:40:04;18.67;;;8.47;;
64957;SDS011;51486;50.232;19.208;2022-09-09T04:42:30;16.03;;;8.27;;
64957;SDS011;51486;50.232;19.208;2022-09-09T04:44:55;21.97;;;10.80;;
64957;SDS011;51486;50.232;19.208;2022-09-09T04:47:20;21.07;;;11.30;;
64957;SDS011;51486;50.232;19.208;2022-09-09T04:49:46;30.70;;;12.80;;
64957;SDS011;51486;50.232;19.208;2022-09-09T04:52:11;16.40;;;10.13;;
64957;SDS011;51486;50.232;19.208;2022-09-09T04:54:37;19.03;;;10.07;;
64957;SDS011;51486;50.232;19.208;2022-09-09T04:57:02;17.43;;;9.03;;
64957;SDS011;51486;50.232;19.208;2022-09-09T04:59:27;21.73;;;9.80;;
64957;SDS011;51486;50.232;19.208;2022-09-09T05:01:53;15.90;;;8.20;;
64957;SDS011;51486;50.232;19.208;2022-09-09T05:04:20;19.10;;;8.13;;
64957;SDS011;51486;50.232;19.208;2022-09-09T05:06:46;13.40;;;8.00;;
64957;SDS011;51486;50.232;19.208;2022-09-09T05:09:11;12.40;;;6.50;;
64957;SDS011;51486;50.232;19.208;2022-09-09T05:11:36;13.47;;;7.83;;
64957;SDS011;51486;50.232;19.208;2022-09-09T05:14:03;12.17;;;6.83;;
64957;SDS011;51486;50.232;19.208;2022-09-09T05:16:28;11.77;;;6.93;;
64957;SDS011;51486;50.232;19.208;2022-09-09T05:18:55;13.57;;;6.80;;
64957;SDS011;51486;50.232;19.208;2022-09-09T05:21:22;13.20;;;7.57;;
64957;SDS011;51486;50.232;19.208;2022-09-09T05:23:50;9.63;;;6.13;;
64957;SDS011;51486;50.232;19.208;2022-09-09T05:26:17;14.90;;;6.57;;
64957;SDS011;51486;50.232;19.208;2022-09-09T05:28:44;10.87;;;6.03;;
64957;SDS011;51486;50.232;19.208;2022-09-09T05:31:09;10.03;;;5.97;;
64957;SDS011;51486;50.232;19.208;2022-09-09T05:33:39;9.47;;;5.83;;
64957;SDS011;51486;50.232;19.208;2022-09-09T05:36:06;9.93;;;6.20;;
64957;SDS011;51486;50.232;19.208;2022-09-09T05:38:35;12.30;;;5.37;;
64957;SDS011;51486;50.232;19.208;2022-09-09T05:41:01;9.70;;;5.53;;
64957;SDS011;51486;50.232;19.208;2022-09-09T05:43:28;11.17;;;5.93;;
64957;SDS011;51486;50.232;19.208;2022-09-09T05:46:01;8.97;;;5.77;;
64957;SDS011;51486;50.232;19.208;2022-09-09T05:48:29;8.63;;;4.70;;
64957;SDS011;51486;50.232;19.208;2022-09-09T05:50:59;9.27;;;5.77;;
64957;SDS011;51486;50.232;19.208;2022-09-09T05:53:25;9.30;;;4.93;;
64957;SDS011;51486;50.232;19.208;2022-09-09T05:56:01;10.17;;;5.67;;
64957;SDS011;51486;50.232;19.208;2022-09-09T05:58:37;8.77;;;4.97;;
64957;SDS011;51486;50.232;19.208;2022-09-09T06:01:07;9.73;;;5.73;;
64957;SDS011;51486;50.232;19.208;2022-09-09T06:03:36;9.67;;;5.27;;
64957;SDS011;51486;50.232;19.208;2022-09-09T06:06:04;9.93;;;5.37;;
64957;SDS011;51486;50.232;19.208;2022-09-09T06:08:35;10.90;;;4.80;;
64957;SDS011;51486;50.232;19.208;2022-09-09T06:11:04;7.83;;;4.70;;
64957;SDS011;51486;50.232;19.208;2022-09-09T06:13:31;9.53;;;4.47;;
64957;SDS011;51486;50.232;19.208;2022-09-09T06:15:57;10.80;;;5.67;;
64957;SDS011;51486;50.232;19.208;2022-09-09T06:18:23;7.53;;;4.27;;
64957;SDS011;51486;50.232;19.208;2022-09-09T06:21:09;9.53;;;4.63;;
64957;SDS011;51486;50.232;19.208;2022-09-09T06:23:39;6.37;;;3.83;;
64957;SDS011;51486;50.232;19.208;2022-09-09T06:28:34;7.60;;;4.30;;
64957;SDS011;51486;50.232;19.208;2022-09-09T06:31:00;7.40;;;3.40;;
64957;SDS011;51486;50.232;19.208;2022-09-09T06:33:30;6.67;;;3.70;;
64957;SDS011;51486;50.232;19.208;2022-09-09T06:35:57;8.60;;;3.03;;
64957;SDS011;51486;50.232;19.208;2022-09-09T06:38:23;5.03;;;3.33;;
64957;SDS011;51486;50.232;19.208;2022-09-09T06:40:52;13.13;;;3.57;;
64957;SDS011;51486;50.232;19.208;2022-09-09T06:43:20;5.77;;;2.90;;
64957;SDS011;51486;50.232;19.208;2022-09-09T06:45:55;6.90;;;3.87;;
64957;SDS011;51486;50.232;19.208;2022-09-09T06:48:28;3.70;;;2.23;;
64957;SDS011;51486;50.232;19.208;2022-09-09T06:51:07;3.77;;;2.57;;
64957;SDS011;51486;50.232;19.208;2022-09-09T06:53:36;6.43;;;2.83;;
64957;SDS011;51486;50.232;19.208;2022-09-09T06:56:19;5.97;;;3.43;;
64957;SDS011;51486;50.232;19.208;2022-09-09T06:58:48;6.23;;;2.90;;
64957;SDS011;51486;50.232;19.208;2022-09-09T07:01:15;3.83;;;2.50;;
64957;SDS011;51486;50.232;19.208;2022-09-09T07:03:44;4.17;;;2.43;;
64957;SDS011;51486;50.232;19.208;2022-09-09T07:06:16;12.43;;;2.47;;
64957;SDS011;51486;50.232;19.208;2022-09-09T07:08:53;2.93;;;2.40;;
64957;SDS011;51486;50.232;19.208;2022-09-09T07:11:21;5.07;;;2.13;;
64957;SDS011;51486;50.232;19.208;2022-09-09T07:13:47;3.83;;;2.33;;
64957;SDS011;51486;50.232;19.208;2022-09-09T07:16:14;2.90;;;1.77;;
64957;SDS011;51486;50.232;19.208;2022-09-09T07:18:42;2.80;;;2.17;;
64957;SDS011;51486;50.232;19.208;2022-09-09T07:21:09;4.33;;;2.60;;
64957;SDS011;51486;50.232;19.208;2022-09-09T07:23:37;3.30;;;2.37;;
64957;SDS011;51486;50.232;19.208;2022-09-09T07:26:06;2.20;;;1.33;;
64957;SDS011;51486;50.232;19.208;2022-09-09T07:28:40;3.40;;;1.87;;
64957;SDS011;51486;50.232;19.208;2022-09-09T07:31:06;5.90;;;2.27;;
64957;SDS011;51486;50.232;19.208;2022-09-09T07:33:38;2.40;;;1.50;;
64957;SDS011;51486;50.232;19.208;2022-09-09T07:36:24;2.60;;;2.07;;
64957;SDS011;51486;50.232;19.208;2022-09-09T07:38:52;2.10;;;1.30;;
64957;SDS011;51486;50.232;19.208;2022-09-09T07:41:29;1.57;;;1.37;;
64957;SDS011;51486;50.232;19.208;2022-09-09T07:43:57;3.03;;;1.63;;
64957;SDS011;51486;50.232;19.208;2022-09-09T07:46:25;5.10;;;2.07;;
64957;SDS011;51486;50.232;19.208;2022-09-09T07:48:52;3.13;;;2.20;;
64957;SDS011;51486;50.232;19.208;2022-09-09T07:51:23;2.53;;;1.57;;
64957;SDS011;51486;50.232;19.208;2022-09-09T07:53:52;2.50;;;1.47;;
64957;SDS011;51486;50.232;19.208;2022-09-09T07:56:18;2.30;;;1.47;;
64957;SDS011;51486;50.232;19.208;2022-09-09T07:58:47;2.40;;;1.50;;
64957;SDS011;51486;50.232;19.208;2022-09-09T08:01:15;4.00;;;1.63;;
64957;SDS011;51486;50.232;19.208;2022-09-09T08:03:51;1.40;;;1.20;;
64957;SDS011;51486;50.232;19.208;2022-09-09T08:06:18;2.40;;;1.60;;
64957;SDS011;51486;50.232;19.208;2022-09-09T08:08:44;3.30;;;2.05;;
64957;SDS011;51486;50.232;19.208;2022-09-09T08:11:12;2.37;;;1.60;;
64957;SDS011;51486;50.232;19.208;2022-09-09T08:13:40;1.63;;;1.42;;
64957;SDS011;51486;50.232;19.208;2022-09-09T08:16:11;2.83;;;1.20;;
64957;SDS011;51486;50.232;19.208;2022-09-09T08:18:41;2.65;;;1.10;;
64957;SDS011;51486;50.232;19.208;2022-09-09T08:21:07;7.13;;;1.30;;
64957;SDS011;51486;50.232;19.208;2022-09-09T08:23:41;2.47;;;1.40;;
64957;SDS011;51486;50.232;19.208;2022-09-09T08:26:10;3.78;;;1.42;;
64957;SDS011;51486;50.232;19.208;2022-09-09T08:28:37;1.77;;;0.82;;
64957;SDS011;51486;50.232;19.208;2022-09-09T08:31:15;2.67;;;1.25;;
64957;SDS011;51486;50.232;19.208;2022-09-09T08:33:43;1.27;;;0.80;;
64957;SDS011;51486;50.232;19.208;2022-09-09T08:36:11;1.95;;;1.13;;
64957;SDS011;51486;50.232;19.208;2022-09-09T08:38:40;1.33;;;1.20;;
64957;SDS011;51486;50.232;19.208;2022-09-09T08:44:01;1.38;;;0.80;;
64957;SDS011;51486;50.232;19.208;2022-09-09T08:52:07;1.00;;;0.90;;
64957;SDS011;51486;50.232;19.208;2022-09-09T08:54:40;3.38;;;1.00;;
64957;SDS011;51486;50.232;19.208;2022-09-09T08:57:07;4.53;;;1.48;;
64957;SDS011;51486;50.232;19.208;2022-09-09T08:59:38;1.67;;;1.05;;
64957;SDS011;51486;50.232;19.208;2022-09-09T09:05:07;1.23;;;0.93;;
64957;SDS011;51486;50.232;19.208;2022-09-09T09:12:57;1.00;;;0.73;;
64957;SDS011;51486;50.232;19.208;2022-09-09T09:15:25;2.90;;;0.80;;
64957;SDS011;51486;50.232;19.208;2022-09-09T09:17:53;0.98;;;0.80;;
64957;SDS011;51486;50.232;19.208;2022-09-09T09:20:21;1.13;;;0.90;;
64957;SDS011;51486;50.232;19.208;2022-09-09T09:22:55;12.30;;;0.95;;
64957;SDS011;51486;50.232;19.208;2022-09-09T09:25:32;0.82;;;0.70;;
64957;SDS011;51486;50.232;19.208;2022-09-09T09:28:10;2.35;;;0.93;;
64957;SDS011;51486;50.232;19.208;2022-09-09T09:31:04;0.95;;;0.70;;
64957;SDS011;51486;50.232;19.208;2022-09-09T09:36:14;2.45;;;0.93;;
64957;SDS011;51486;50.232;19.208;2022-09-09T09:38:51;6.30;;;0.80;;
64957;SDS011;51486;50.232;19.208;2022-09-09T09:41:28;0.88;;;0.65;;
64957;SDS011;51486;50.232;19.208;2022-09-09T09:44:06;0.60;;;0.50;;
64957;SDS011;51486;50.232;19.208;2022-09-09T09:49:33;0.50;;;0.50;;
64957;SDS011;51486;50.232;19.208;2022-09-09T09:52:02;0.90;;;0.77;;
64957;SDS011;51486;50.232;19.208;2022-09-09T09:54:30;0.75;;;0.70;;
64957;SDS011;51486;50.232;19.208;2022-09-09T09:57:08;1.52;;;0.98;;
64957;SDS011;51486;50.232;19.208;2022-09-09T09:59:35;2.58;;;0.68;;
64957;SDS011;51486;50.232;19.208;2022-09-09T10:05:00;2.15;;;0.80;;
64957;SDS011;51486;50.232;19.208;2022-09-09T10:07:29;1.38;;;0.90;;
64957;SDS011;51486;50.232;19.208;2022-09-09T10:09:57;1.17;;;0.70;;
64957;SDS011;51486;50.232;19.208;2022-09-09T10:18:33;2.28;;;0.70;;
64957;SDS011;51486;50.232;19.208;2022-09-09T10:21:06;2.35;;;1.10;;
64957;SDS011;51486;50.232;19.208;2022-09-09T10:26:58;0.40;;;0.40;;
64957;SDS011;51486;50.232;19.208;2022-09-09T10:34:56;1.13;;;0.55;;
64957;SDS011;51486;50.232;19.208;2022-09-09T10:40:26;0.60;;;0.60;;
64957;SDS011;51486;50.232;19.208;2022-09-09T10:51:40;1.83;;;1.17;;
64957;SDS011;51486;50.232;19.208;2022-09-09T10:56:56;1.08;;;0.70;;
64957;SDS011;51486;50.232;19.208;2022-09-09T10:59:32;0.70;;;0.70;;
64957;SDS011;51486;50.232;19.208;2022-09-09T11:02:11;0.50;;;0.50;;
64957;SDS011;51486;50.232;19.208;2022-09-09T11:04:48;1.40;;;0.63;;
64957;SDS011;51486;50.232;19.208;2022-09-09T11:07:22;0.50;;;0.50;;
64957;SDS011;51486;50.232;19.208;2022-09-09T11:09:59;0.40;;;0.40;;
64957;SDS011;51486;50.232;19.208;2022-09-09T11:12:28;1.02;;;0.70;;
64957;SDS011;51486;50.232;19.208;2022-09-09T11:17:46;1.63;;;0.70;;
64957;SDS011;51486;50.232;19.208;2022-09-09T11:20:15;1.02;;;0.90;;
64957;SDS011;51486;50.232;19.208;2022-09-09T11:30:48;0.52;;;0.52;;
64957;SDS011;51486;50.232;19.208;2022-09-09T11:36:38;0.60;;;0.60;;
64957;SDS011;51486;50.232;19.208;2022-09-09T11:44:32;0.93;;;0.60;;
64957;SDS011;51486;50.232;19.208;2022-09-09T11:46:58;0.65;;;0.55;;
64957;SDS011;51486;50.232;19.208;2022-09-09T11:49:28;0.52;;;0.43;;
64957;SDS011;51486;50.232;19.208;2022-09-09T11:52:25;1.00;;;0.80;;
64957;SDS011;51486;50.232;19.208;2022-09-09T11:55:08;1.42;;;0.65;;
64957;SDS011;51486;50.232;19.208;2022-09-09T11:57:36;1.60;;;0.80;;
64957;SDS011;51486;50.232;19.208;2022-09-09T12:00:03;1.25;;;0.70;;
64957;SDS011;51486;50.232;19.208;2022-09-09T12:02:30;0.65;;;0.60;;
64957;SDS011;51486;50.232;19.208;2022-09-09T12:04:59;0.50;;;0.50;;
64957;SDS011;51486;50.232;19.208;2022-09-09T12:07:35;0.68;;;0.50;;
64957;SDS011;51486;50.232;19.208;2022-09-09T12:12:47;2.55;;;0.85;;
64957;SDS011;51486;50.232;19.208;2022-09-09T12:15:17;0.52;;;0.52;;
64957;SDS011;51486;50.232;19.208;2022-09-09T12:17:50;1.00;;;0.60;;
64957;SDS011;51486;50.232;19.208;2022-09-09T12:28:48;1.52;;;0.82;;
64957;SDS011;51486;50.232;19.208;2022-09-09T12:34:24;0.63;;;0.50;;
64957;SDS011;51486;50.232;19.208;2022-09-09T12:37:08;2.50;;;0.52;;
64957;SDS011;51486;50.232;19.208;2022-09-09T12:39:42;1.83;;;0.60;;
64957;SDS011;51486;50.232;19.208;2022-09-09T12:42:21;0.65;;;0.47;;
64957;SDS011;51486;50.232;19.208;2022-09-09T12:45:14;0.65;;;0.57;;
64957;SDS011;51486;50.232;19.208;2022-09-09T12:50:33;0.60;;;0.50;;
64957;SDS011;51486;50.232;19.208;2022-09-09T12:53:08;0.30;;;0.30;;
64957;SDS011;51486;50.232;19.208;2022-09-09T12:55:40;0.40;;;0.38;;
64957;SDS011;51486;50.232;19.208;2022-09-09T12:58:16;1.55;;;0.77;;
64957;SDS011;51486;50.232;19.208;2022-09-09T13:00:48;0.80;;;0.47;;
64957;SDS011;51486;50.232;19.208;2022-09-09T13:03:16;0.50;;;0.50;;
64957;SDS011;51486;50.232;19.208;2022-09-09T13:05:45;0.38;;;0.38;;
64957;SDS011;51486;50.232;19.208;2022-09-09T13:08:12;0.70;;;0.68;;
64957;SDS011;51486;50.232;19.208;2022-09-09T13:10:40;1.15;;;0.68;;
64957;SDS011;51486;50.232;19.208;2022-09-09T13:13:17;2.05;;;0.73;;
64957;SDS011;51486;50.232;19.208;2022-09-09T13:15:53;0.63;;;0.40;;
64957;SDS011;51486;50.232;19.208;2022-09-09T13:18:23;1.00;;;0.65;;
64957;SDS011;51486;50.232;19.208;2022-09-09T13:20:51;0.65;;;0.65;;
64957;SDS011;51486;50.232;19.208;2022-09-09T13:23:18;1.67;;;0.82;;
64957;SDS011;51486;50.232;19.208;2022-09-09T13:25:55;0.32;;;0.32;;
64957;SDS011;51486;50.232;19.208;2022-09-09T13:28:22;0.63;;;0.40;;
64957;SDS011;51486;50.232;19.208;2022-09-09T13:30:59;1.15;;;0.73;;
64957;SDS011;51486;50.232;19.208;2022-09-09T13:33:35;0.90;;;0.52;;
64957;SDS011;51486;50.232;19.208;2022-09-09T13:38:30;4.88;;;0.60;;
64957;SDS011;51486;50.232;19.208;2022-09-09T13:40:58;0.50;;;0.50;;
64957;SDS011;51486;50.232;19.208;2022-09-09T13:43:30;0.90;;;0.57;;
64957;SDS011;51486;50.232;19.208;2022-09-09T13:46:02;0.70;;;0.63;;
64957;SDS011;51486;50.232;19.208;2022-09-09T13:48:29;0.80;;;0.63;;
64957;SDS011;51486;50.232;19.208;2022-09-09T13:50:57;0.43;;;0.40;;
64957;SDS011;51486;50.232;19.208;2022-09-09T13:53:29;2.25;;;0.68;;
64957;SDS011;51486;50.232;19.208;2022-09-09T13:55:55;1.02;;;0.40;;
64957;SDS011;51486;50.232;19.208;2022-09-09T13:58:21;0.82;;;0.60;;
64957;SDS011;51486;50.232;19.208;2022-09-09T14:00:49;0.52;;;0.43;;
64957;SDS011;51486;50.232;19.208;2022-09-09T14:03:15;0.82;;;0.70;;
64957;SDS011;51486;50.232;19.208;2022-09-09T14:05:41;0.55;;;0.45;;
64957;SDS011;51486;50.232;19.208;2022-09-09T14:08:07;0.90;;;0.60;;
64957;SDS011;51486;50.232;19.208;2022-09-09T14:10:40;0.93;;;0.65;;
64957;SDS011;51486;50.232;19.208;2022-09-09T14:13:06;0.43;;;0.43;;
64957;SDS011;51486;50.232;19.208;2022-09-09T14:15:33;1.00;;;0.70;;
64957;SDS011;51486;50.232;19.208;2022-09-09T14:17:58;3.40;;;0.98;;
64957;SDS011;51486;50.232;19.208;2022-09-09T14:20:24;0.68;;;0.60;;
64957;SDS011;51486;50.232;19.208;2022-09-09T14:22:49;0.55;;;0.55;;
64957;SDS011;51486;50.232;19.208;2022-09-09T14:25:14;5.28;;;0.98;;
64957;SDS011;51486;50.232;19.208;2022-09-09T14:27:40;0.98;;;0.65;;
64957;SDS011;51486;50.232;19.208;2022-09-09T14:30:07;0.88;;;0.70;;
64957;SDS011;51486;50.232;19.208;2022-09-09T14:32:33;0.60;;;0.60;;
64957;SDS011;51486;50.232;19.208;2022-09-09T14:34:59;0.82;;;0.60;;
64957;SDS011;51486;50.232;19.208;2022-09-09T14:37:24;1.08;;;0.60;;
64957;SDS011;51486;50.232;19.208;2022-09-09T14:39:51;0.88;;;0.63;;
64957;SDS011;51486;50.232;19.208;2022-09-09T14:42:17;0.73;;;0.52;;
64957;SDS011;51486;50.232;19.208;2022-09-09T14:44:42;2.17;;;0.75;;
64957;SDS011;51486;50.232;19.208;2022-09-09T14:47:08;1.15;;;0.88;;
64957;SDS011;51486;50.232;19.208;2022-09-09T14:49:37;0.82;;;0.70;;
64957;SDS011;51486;50.232;19.208;2022-09-09T14:52:03;0.57;;;0.50;;
64957;SDS011;51486;50.232;19.208;2022-09-09T14:54:29;0.90;;;0.65;;
64957;SDS011;51486;50.232;19.208;2022-09-09T14:56:55;3.45;;;0.90;;
64957;SDS011;51486;50.232;19.208;2022-09-09T14:59:22;0.40;;;0.40;;
64957;SDS011;51486;50.232;19.208;2022-09-09T15:01:47;0.60;;;0.60;;
64957;SDS011;51486;50.232;19.208;2022-09-09T15:04:13;0.65;;;0.60;;
64957;SDS011;51486;50.232;19.208;2022-09-09T15:06:45;1.05;;;0.68;;
64957;SDS011;51486;50.232;19.208;2022-09-09T15:09:13;0.70;;;0.63;;
64957;SDS011;51486;50.232;19.208;2022-09-09T15:11:39;1.13;;;0.75;;
64957;SDS011;51486;50.232;19.208;2022-09-09T15:14:05;0.50;;;0.43;;
64957;SDS011;51486;50.232;19.208;2022-09-09T15:16:32;5.25;;;1.00;;
64957;SDS011;51486;50.232;19.208;2022-09-09T15:18:59;0.73;;;0.70;;
64957;SDS011;51486;50.232;19.208;2022-09-09T15:21:26;1.08;;;0.70;;
64957;SDS011;51486;50.232;19.208;2022-09-09T15:23:56;0.63;;;0.63;;
64957;SDS011;51486;50.232;19.208;2022-09-09T15:26:22;1.33;;;0.90;;
64957;SDS011;51486;50.232;19.208;2022-09-09T15:28:48;0.75;;;0.63;;
64957;SDS011;51486;50.232;19.208;2022-09-09T15:31:22;0.85;;;0.68;;
64957;SDS011;51486;50.232;19.208;2022-09-09T15:33:49;0.70;;;0.70;;
64957;SDS011;51486;50.232;19.208;2022-09-09T15:36:17;2.15;;;0.50;;
64957;SDS011;51486;50.232;19.208;2022-09-09T15:38:44;0.80;;;0.75;;
64957;SDS011;51486;50.232;19.208;2022-09-09T15:41:10;1.90;;;0.77;;
64957;SDS011;51486;50.232;19.208;2022-09-09T15:43:37;4.97;;;0.90;;
64957;SDS011;51486;50.232;19.208;2022-09-09T15:46:37;1.42;;;1.00;;
64957;SDS011;51486;50.232;19.208;2022-09-09T15:51:41;1.52;;;0.88;;
64957;SDS011;51486;50.232;19.208;2022-09-09T15:54:07;1.13;;;0.63;;
64957;SDS011;51486;50.232;19.208;2022-09-09T15:56:33;1.45;;;0.80;;
64957;SDS011;51486;50.232;19.208;2022-09-09T15:59:00;1.20;;;0.85;;
64957;SDS011;51486;50.232;19.208;2022-09-09T16:01:28;2.70;;;0.90;;
64957;SDS011;51486;50.232;19.208;2022-09-09T16:03:56;1.07;;;0.90;;
64957;SDS011;51486;50.232;19.208;2022-09-09T16:06:22;1.27;;;1.00;;
64957;SDS011;51486;50.232;19.208;2022-09-09T16:08:50;1.07;;;0.83;;
64957;SDS011;51486;50.232;19.208;2022-09-09T16:11:21;1.43;;;0.80;;
64957;SDS011;51486;50.232;19.208;2022-09-09T16:13:48;2.80;;;1.13;;
64957;SDS011;51486;50.232;19.208;2022-09-09T16:16:16;4.37;;;2.30;;
64957;SDS011;51486;50.232;19.208;2022-09-09T16:18:48;27.70;;;10.67;;
64957;SDS011;51486;50.232;19.208;2022-09-09T16:21:19;20.53;;;10.07;;
64957;SDS011;51486;50.232;19.208;2022-09-09T16:23:44;8.80;;;4.57;;
64957;SDS011;51486;50.232;19.208;2022-09-09T16:26:11;7.87;;;3.90;;
64957;SDS011;51486;50.232;19.208;2022-09-09T16:28:38;5.73;;;3.23;;
64957;SDS011;51486;50.232;19.208;2022-09-09T16:31:07;3.27;;;2.53;;
64957;SDS011;51486;50.232;19.208;2022-09-09T16:33:35;3.97;;;2.13;;
64957;SDS011;51486;50.232;19.208;2022-09-09T16:36:07;7.50;;;2.30;;
64957;SDS011;51486;50.232;19.208;2022-09-09T16:38:35;6.60;;;2.17;;
64957;SDS011;51486;50.232;19.208;2022-09-09T16:41:02;6.57;;;2.13;;
64957;SDS011;51486;50.232;19.208;2022-09-09T16:43:30;2.63;;;1.77;;
64957;SDS011;51486;50.232;19.208;2022-09-09T16:45:55;3.30;;;2.07;;
64957;SDS011;51486;50.232;19.208;2022-09-09T16:48:21;3.73;;;2.23;;
64957;SDS011;51486;50.232;19.208;2022-09-09T16:50:46;3.13;;;1.80;;
64957;SDS011;51486;50.232;19.208;2022-09-09T16:53:11;2.47;;;1.50;;
64957;SDS011;51486;50.232;19.208;2022-09-09T16:55:40;3.90;;;1.83;;
64957;SDS011;51486;50.232;19.208;2022-09-09T16:58:07;4.23;;;2.20;;
64957;SDS011;51486;50.232;19.208;2022-09-09T17:00:35;6.07;;;1.67;;
64957;SDS011;51486;50.232;19.208;2022-09-09T17:03:01;8.93;;;1.90;;
64957;SDS011;51486;50.232;19.208;2022-09-09T17:05:27;76.37;;;30.93;;
64957;SDS011;51486;50.232;19.208;2022-09-09T17:07:54;186.17;;;78.07;;
64957;SDS011;51486;50.232;19.208;2022-09-09T17:10:23;145.03;;;61.27;;
64957;SDS011;51486;50.232;19.208;2022-09-09T17:12:50;70.27;;;31.37;;
64957;SDS011;51486;50.232;19.208;2022-09-09T17:15:15;23.90;;;11.83;;